createdAt,value
2017-05-13T00:01:53.102Z,77.69
2017-05-13T00:04:20.606Z,78.27
2017-05-13T00:06:48.165Z,78.43
2017-05-13T00:09:15.722Z,79.97
2017-05-13T00:11:43.257Z,79.21
2017-05-13T00:14:10.895Z,78.44
2017-05-13T00:16:38.441Z,80.10
2017-05-13T00:19:06.356Z,80.21
2017-05-13T00:21:33.891Z,79.82
2017-05-13T00:24:01.436Z,80.38
2017-05-13T00:26:29.001Z,79.19
2017-05-13T00:28:56.525Z,78.48
2017-05-13T00:31:24.148Z,78.24
2017-05-13T00:33:51.690Z,79.95
2017-05-13T00:36:19.231Z,79.56
2017-05-13T00:38:46.795Z,78.63
2017-05-13T00:41:14.700Z,77.24
2017-05-13T00:43:42.226Z,77.45
2017-05-13T00:46:09.763Z,78.80
2017-05-13T00:48:37.306Z,80.38
2017-05-13T00:51:04.836Z,79.20
2017-05-13T00:53:32.432Z,78.49
2017-05-13T00:55:59.995Z,80.23
2017-05-13T00:58:27.585Z,80.03
2017-05-13T01:00:55.140Z,81.44
2017-05-13T01:03:22.660Z,80.76
2017-05-13T01:05:50.492Z,81.20
2017-05-13T01:08:18.021Z,81.09
2017-05-13T01:10:45.549Z,81.56
2017-05-13T01:13:13.113Z,81.37
2017-05-13T01:15:40.660Z,78.89
2017-05-13T01:18:08.625Z,78.12
2017-05-13T01:20:36.177Z,77.96
2017-05-13T01:23:03.719Z,78.00
2017-05-13T01:25:31.287Z,77.60
2017-05-13T01:27:58.840Z,78.58
2017-05-13T01:30:26.728Z,77.82
2017-05-13T01:32:54.243Z,80.04
2017-05-13T01:35:21.772Z,80.30
2017-05-13T01:37:49.333Z,81.40
2017-05-13T01:40:16.916Z,81.71
2017-05-13T01:42:44.440Z,81.70
2017-05-13T01:45:11.964Z,81.46
2017-05-13T01:47:39.552Z,81.90
2017-05-13T01:50:07.363Z,82.59
2017-05-13T01:52:34.853Z,82.65
2017-05-13T01:55:02.394Z,82.65
2017-05-13T01:57:29.946Z,82.22
2017-05-13T01:59:57.473Z,81.06
2017-05-13T02:02:25.302Z,79.28
2017-05-13T02:04:52.827Z,81.15
2017-05-13T02:07:20.352Z,80.91
2017-05-13T02:09:47.913Z,80.41
2017-05-13T02:12:15.435Z,80.44
2017-05-13T02:14:43.171Z,80.97
2017-05-13T02:17:10.705Z,80.36
2017-05-13T02:19:38.260Z,81.34
2017-05-13T02:22:06.180Z,80.48
2017-05-13T02:24:33.696Z,81.06
2017-05-13T02:27:01.284Z,81.89
2017-05-13T02:29:28.856Z,81.40
2017-05-13T02:31:56.412Z,80.95
2017-05-13T02:34:23.972Z,79.36
2017-05-13T02:36:51.595Z,78.39
2017-05-13T02:39:19.411Z,79.01
2017-05-13T02:41:47.005Z,78.66
2017-05-13T02:44:14.535Z,79.50
2017-05-13T02:46:42.139Z,80.30
2017-05-13T02:49:09.715Z,81.01
2017-05-13T02:51:37.500Z,81.96
2017-05-13T02:54:05.076Z,81.00
2017-05-13T02:56:32.709Z,79.55
2017-05-13T02:59:00.334Z,79.39
2017-05-13T03:01:27.912Z,80.08
2017-05-13T03:03:55.548Z,79.11
2017-05-13T03:06:23.072Z,78.79
2017-05-13T03:08:50.736Z,78.35
2017-05-13T03:11:18.433Z,78.32
2017-05-13T03:13:45.959Z,78.17
2017-05-13T03:16:13.835Z,78.74
2017-05-13T03:18:41.357Z,79.03
2017-05-13T03:21:08.926Z,79.48
2017-05-13T03:23:36.467Z,79.93
2017-05-13T03:26:03.994Z,79.76
2017-05-13T03:28:31.531Z,79.44
2017-05-13T03:30:59.070Z,79.96
2017-05-13T03:33:26.975Z,79.46
2017-05-13T03:35:54.507Z,79.77
2017-05-13T03:38:22.033Z,79.48
2017-05-13T03:40:49.611Z,79.45
2017-05-13T03:43:17.197Z,79.25
2017-05-13T03:45:45.009Z,79.64
2017-05-13T03:48:12.569Z,79.98
2017-05-13T03:50:40.119Z,80.12
2017-05-13T03:53:07.715Z,80.33
2017-05-13T03:55:35.255Z,80.40
2017-05-13T03:58:03.069Z,80.02
2017-05-13T04:00:30.618Z,80.43
2017-05-13T04:02:58.151Z,81.35
2017-05-13T04:05:25.704Z,81.32
2017-05-13T04:07:53.233Z,81.41
2017-05-13T04:10:20.792Z,81.84
2017-05-13T04:12:48.370Z,82.31
2017-05-13T04:15:16.184Z,82.57
2017-05-13T04:17:43.703Z,82.01
2017-05-13T04:20:11.244Z,82.91
2017-05-13T04:22:38.820Z,83.53
2017-05-13T04:25:06.345Z,83.35
2017-05-13T04:27:33.904Z,83.43
2017-05-13T04:30:01.434Z,83.73
2017-05-13T04:32:29.273Z,83.21
2017-05-13T04:34:56.802Z,82.61
2017-05-13T04:37:24.330Z,82.99
2017-05-13T04:39:51.889Z,83.25
2017-05-13T04:42:19.408Z,84.03
2017-05-13T04:44:47.378Z,84.06
2017-05-13T04:47:14.905Z,83.25
2017-05-13T04:49:42.434Z,82.63
2017-05-13T04:52:09.993Z,82.17
2017-05-13T04:54:37.531Z,82.34
2017-05-13T04:57:05.080Z,81.29
2017-05-13T04:59:32.607Z,82.00
2017-05-13T05:02:00.459Z,81.18
2017-05-13T05:04:27.989Z,80.10
2017-05-13T05:06:55.536Z,80.29
2017-05-13T05:09:23.107Z,79.79
2017-05-13T05:11:50.634Z,79.49
2017-05-13T05:14:18.215Z,79.51
2017-05-13T05:16:45.744Z,79.29
2017-05-13T05:19:13.288Z,79.37
2017-05-13T05:21:40.831Z,79.65
2017-05-13T05:24:08.399Z,79.43
2017-05-13T05:26:35.956Z,79.93
2017-05-13T05:29:03.873Z,80.44
2017-05-13T05:31:31.407Z,80.76
2017-05-13T05:33:58.932Z,79.74
2017-05-13T05:36:26.492Z,79.43
2017-05-13T05:38:54.023Z,79.15
2017-05-13T05:41:21.945Z,79.07
2017-05-13T05:43:49.476Z,78.69
2017-05-13T05:46:17.089Z,78.83
2017-05-13T05:48:44.660Z,79.17
2017-05-13T05:51:12.268Z,80.33
2017-05-13T05:53:40.269Z,80.23
2017-05-13T05:56:07.804Z,79.49
2017-05-13T05:58:35.431Z,78.74
2017-05-13T06:01:03.034Z,79.17
2017-05-13T06:03:30.563Z,79.08
2017-05-13T06:05:58.124Z,79.44
2017-05-13T06:08:25.643Z,79.83
2017-05-13T06:10:53.231Z,79.90
2017-05-13T06:13:20.868Z,79.50
2017-05-13T06:15:48.446Z,79.97
2017-05-13T06:18:16.024Z,79.91
2017-05-13T06:20:43.549Z,80.15
2017-05-13T06:23:11.217Z,80.01
2017-05-13T06:25:38.839Z,79.68
2017-05-13T06:28:06.448Z,78.35
2017-05-13T06:30:34.029Z,77.37
2017-05-13T06:33:01.686Z,77.42
2017-05-13T06:35:29.255Z,77.42
2017-05-13T06:37:56.786Z,77.16
2017-05-13T06:40:24.416Z,76.89
2017-05-13T06:42:51.931Z,76.83
2017-05-13T06:45:19.496Z,75.34
2017-05-13T06:47:47.012Z,75.47
2017-05-13T06:50:14.537Z,75.53
2017-05-13T06:52:42.068Z,73.76
2017-05-13T06:55:09.587Z,72.35
2017-05-13T06:57:37.144Z,70.97
2017-05-13T07:00:04.660Z,71.09
2017-05-13T07:02:32.219Z,70.73
2017-05-13T07:04:59.730Z,70.94
2017-05-13T07:07:27.249Z,71.20
2017-05-13T07:09:54.808Z,70.59
2017-05-13T07:12:22.349Z,70.79
2017-05-13T07:14:49.906Z,69.36
2017-05-13T07:17:17.433Z,68.54
2017-05-13T07:19:45.274Z,68.08
2017-05-13T07:22:12.794Z,69.37
2017-05-13T07:24:40.303Z,65.90
2017-05-13T07:27:08.228Z,65.52
2017-05-13T07:29:35.844Z,64.27
2017-05-13T07:32:03.381Z,63.65
2017-05-13T07:34:31.256Z,64.92
2017-05-13T07:36:58.787Z,64.19
2017-05-13T07:39:26.310Z,63.93
2017-05-13T07:41:53.887Z,63.66
2017-05-13T07:44:21.512Z,63.83
2017-05-13T07:46:49.051Z,63.96
2017-05-13T07:49:16.630Z,63.64
2017-05-13T07:51:44.176Z,63.53
2017-05-13T07:54:11.699Z,63.73
2017-05-13T07:56:39.249Z,62.95
2017-05-13T07:59:06.771Z,63.73
2017-05-13T08:01:34.664Z,62.99
2017-05-13T08:04:02.184Z,62.06
2017-05-13T08:06:29.758Z,62.97
2017-05-13T08:08:57.400Z,63.79
2017-05-13T08:11:24.924Z,63.41
2017-05-13T08:13:52.982Z,63.34
2017-05-13T08:16:20.478Z,63.17
2017-05-13T08:18:48.049Z,63.51
2017-05-13T08:21:15.655Z,61.34
2017-05-13T08:23:43.220Z,61.70
2017-05-13T08:26:10.783Z,60.75
2017-05-13T08:28:38.352Z,62.39
2017-05-13T08:31:06.253Z,63.00
2017-05-13T08:33:33.763Z,61.92
2017-05-13T08:36:01.279Z,62.43
2017-05-13T08:38:28.808Z,62.33
2017-05-13T08:40:56.336Z,62.48
2017-05-13T08:43:23.895Z,63.49
2017-05-13T08:45:51.422Z,62.89
2017-05-13T08:48:18.987Z,62.79
2017-05-13T08:50:46.637Z,62.33
2017-05-13T08:53:14.331Z,61.92
2017-05-13T08:55:41.842Z,62.48
2017-05-13T08:58:09.384Z,61.66
2017-05-13T09:00:36.936Z,61.48
2017-05-13T09:03:04.632Z,62.14
2017-05-13T09:05:32.428Z,60.34
2017-05-13T09:08:00.036Z,60.68
2017-05-13T09:10:27.547Z,59.33
2017-05-13T09:12:55.107Z,59.47
2017-05-13T09:15:22.637Z,59.47
2017-05-13T09:17:50.216Z,59.48
2017-05-13T09:20:17.745Z,60.27
2017-05-13T09:22:45.502Z,59.69
2017-05-13T09:25:13.012Z,58.13
2017-05-13T09:27:40.521Z,58.04
2017-05-13T09:30:08.083Z,56.68
2017-05-13T09:32:35.612Z,57.60
2017-05-13T09:35:03.177Z,57.93
2017-05-13T09:37:30.824Z,56.97
2017-05-13T09:39:58.510Z,56.47
2017-05-13T09:42:26.056Z,54.21
2017-05-13T09:44:53.737Z,54.39
2017-05-13T09:47:21.288Z,54.15
2017-05-13T09:49:48.839Z,55.33
2017-05-13T09:52:16.477Z,54.95
2017-05-13T09:54:44.075Z,57.48
2017-05-13T09:57:11.664Z,55.90
2017-05-13T09:59:39.183Z,56.46
2017-05-13T10:02:06.888Z,56.30
2017-05-13T10:04:34.408Z,55.16
2017-05-13T10:07:01.971Z,54.82
2017-05-13T10:09:29.544Z,53.88
2017-05-13T10:11:57.060Z,54.83
2017-05-13T10:14:24.628Z,55.21
2017-05-13T10:16:52.255Z,54.84
2017-05-13T10:19:19.911Z,53.76
2017-05-13T10:21:47.495Z,53.98
2017-05-13T10:24:15.220Z,52.75
2017-05-13T10:26:42.754Z,51.83
2017-05-13T10:29:10.272Z,52.36
2017-05-13T10:31:37.871Z,52.38
2017-05-13T10:34:05.374Z,53.33
2017-05-13T10:36:33.031Z,53.27
2017-05-13T10:39:00.542Z,52.66
2017-05-13T10:41:28.299Z,52.71
2017-05-13T10:43:55.828Z,52.41
2017-05-13T10:46:23.497Z,51.87
2017-05-13T10:48:51.031Z,51.50
2017-05-13T10:51:18.575Z,51.45
2017-05-13T10:53:46.184Z,51.56
2017-05-13T10:56:13.775Z,51.25
2017-05-13T10:58:41.340Z,51.36
2017-05-13T11:01:08.956Z,51.60
2017-05-13T11:03:36.580Z,48.82
2017-05-13T11:06:04.151Z,48.41
2017-05-13T11:08:31.915Z,50.63
2017-05-13T11:10:59.481Z,50.93
2017-05-13T11:13:27.000Z,51.80
2017-05-13T11:15:54.559Z,50.65
2017-05-13T11:18:22.085Z,50.49
2017-05-13T11:20:49.801Z,49.75
2017-05-13T11:23:17.441Z,49.96
2017-05-13T11:25:44.969Z,49.90
2017-05-13T11:28:12.523Z,48.87
2017-05-13T11:30:40.103Z,48.23
2017-05-13T11:33:07.692Z,47.83
2017-05-13T11:35:35.206Z,45.99
2017-05-13T11:38:02.783Z,46.39
2017-05-13T11:40:30.304Z,47.63
2017-05-13T11:42:58.224Z,45.89
2017-05-13T11:45:25.753Z,44.93
2017-05-13T11:47:53.349Z,46.39
2017-05-13T11:50:20.964Z,45.07
2017-05-13T11:52:48.558Z,43.25
2017-05-13T11:55:16.441Z,43.69
2017-05-13T11:57:43.967Z,45.99
2017-05-13T12:00:11.490Z,45.93
2017-05-13T12:02:39.035Z,45.70
2017-05-13T12:05:06.555Z,45.84
2017-05-13T12:07:34.126Z,44.69
2017-05-13T12:10:01.635Z,45.69
2017-05-13T12:12:29.600Z,44.69
2017-05-13T12:14:57.106Z,46.12
2017-05-13T12:17:24.619Z,47.51
2017-05-13T12:19:52.164Z,46.14
2017-05-13T12:22:19.671Z,45.67
2017-05-13T12:24:47.694Z,47.54
2017-05-13T12:27:15.225Z,48.62
2017-05-13T12:29:42.747Z,49.16
2017-05-13T12:32:10.377Z,52.50
2017-05-13T12:34:37.902Z,52.84
2017-05-13T12:37:05.438Z,57.43
2017-05-13T12:39:32.963Z,54.55
2017-05-13T12:42:00.533Z,54.49
2017-05-13T12:44:28.062Z,54.75
2017-05-13T12:46:55.623Z,52.92
2017-05-13T12:49:23.146Z,51.98
2017-05-13T12:51:51.012Z,48.53
2017-05-13T12:54:18.541Z,47.90
2017-05-13T12:56:46.056Z,48.80
2017-05-13T12:59:13.610Z,46.79
2017-05-13T13:01:41.165Z,45.28
2017-05-13T13:04:08.711Z,45.02
2017-05-13T13:06:36.240Z,46.10
2017-05-13T13:09:04.174Z,44.49
2017-05-13T13:11:31.734Z,45.14
2017-05-13T13:13:59.250Z,44.18
2017-05-13T13:16:26.843Z,44.76
2017-05-13T13:18:54.356Z,42.68
2017-05-13T13:21:22.329Z,41.69
2017-05-13T13:23:49.855Z,41.86
2017-05-13T13:26:17.412Z,38.23
2017-05-13T13:28:44.971Z,40.14
2017-05-13T13:31:12.489Z,38.11
2017-05-13T13:33:40.067Z,38.53
2017-05-13T13:36:07.579Z,38.14
2017-05-13T13:38:35.106Z,38.95
2017-05-13T13:41:02.668Z,39.48
2017-05-13T13:43:30.191Z,39.79
2017-05-13T13:45:57.749Z,40.33
2017-05-13T13:48:25.283Z,38.46
2017-05-13T13:50:53.128Z,38.51
2017-05-13T13:53:20.638Z,38.05
2017-05-13T13:55:48.157Z,40.58
2017-05-13T13:58:15.986Z,41.35
2017-05-13T14:00:43.519Z,42.58
2017-05-13T14:03:11.045Z,43.40
2017-05-13T14:05:38.587Z,44.51
2017-05-13T14:08:06.107Z,44.98
2017-05-13T14:10:33.644Z,45.72
2017-05-13T14:13:01.187Z,43.87
2017-05-13T14:15:29.019Z,42.96
2017-05-13T14:17:56.544Z,43.84
2017-05-13T14:20:24.060Z,43.89
2017-05-13T14:22:51.642Z,44.01
2017-05-13T14:25:19.174Z,43.71
2017-05-13T14:27:46.722Z,44.69
2017-05-13T14:30:14.259Z,42.68
2017-05-13T14:32:41.941Z,41.93
2017-05-13T14:35:09.456Z,38.02
2017-05-13T14:37:36.984Z,37.36
2017-05-13T14:40:04.540Z,38.38
2017-05-13T14:42:32.060Z,37.31
2017-05-13T14:44:59.594Z,36.06
2017-05-13T14:47:27.120Z,36.89
2017-05-13T14:49:55.074Z,36.08
2017-05-13T14:52:22.591Z,35.57
2017-05-13T14:54:50.110Z,37.17
2017-05-13T14:57:17.659Z,37.50
2017-05-13T14:59:45.207Z,38.72
2017-05-13T15:02:12.724Z,38.28
2017-05-13T15:04:40.282Z,37.93
2017-05-13T15:07:08.268Z,37.42
2017-05-13T15:09:35.771Z,36.96
2017-05-13T15:12:03.295Z,36.12
2017-05-13T15:14:30.852Z,37.40
2017-05-13T15:16:58.374Z,36.18
2017-05-13T15:19:26.047Z,35.74
2017-05-13T15:21:53.561Z,35.50
2017-05-13T15:24:21.082Z,35.31
2017-05-13T15:26:48.761Z,36.27
2017-05-13T15:29:16.284Z,38.11
2017-05-13T15:31:43.807Z,36.69
2017-05-13T15:34:11.545Z,37.94
2017-05-13T15:36:39.092Z,37.70
2017-05-13T15:39:06.608Z,38.20
2017-05-13T15:41:34.193Z,37.73
2017-05-13T15:44:01.722Z,36.75
2017-05-13T15:46:29.423Z,36.87
2017-05-13T15:48:56.931Z,38.08
2017-05-13T15:51:24.439Z,37.05
2017-05-13T15:53:52.007Z,37.23
2017-05-13T15:56:19.527Z,37.76
2017-05-13T15:58:47.187Z,38.64
2017-05-13T16:01:14.798Z,39.54
2017-05-13T16:03:42.384Z,40.33
2017-05-13T16:06:10.100Z,40.38
2017-05-13T16:08:37.631Z,40.04
2017-05-13T16:11:05.140Z,40.40
2017-05-13T16:13:32.970Z,40.65
2017-05-13T16:16:00.487Z,41.12
2017-05-13T16:18:28.006Z,41.03
2017-05-13T16:20:55.675Z,40.88
2017-05-13T16:23:23.183Z,40.26
2017-05-13T16:25:50.755Z,40.82
2017-05-13T16:28:18.327Z,40.65
2017-05-13T16:30:45.864Z,40.70
2017-05-13T16:33:13.774Z,40.39
2017-05-13T16:35:41.297Z,40.41
2017-05-13T16:38:08.823Z,40.11
2017-05-13T16:40:36.387Z,41.20
2017-05-13T16:43:03.983Z,41.10
2017-05-13T16:45:31.647Z,41.52
2017-05-13T16:47:59.193Z,42.03
2017-05-13T16:50:26.735Z,42.42
2017-05-13T16:52:54.311Z,42.78
2017-05-13T16:55:21.837Z,43.86
2017-05-13T16:57:49.539Z,44.71
2017-05-13T17:00:17.111Z,45.05
2017-05-13T17:02:44.704Z,45.31
2017-05-13T17:05:12.283Z,45.40
2017-05-13T17:07:39.791Z,45.76
2017-05-13T17:10:07.481Z,45.78
2017-05-13T17:12:35.535Z,46.10
2017-05-13T17:15:03.065Z,46.10
2017-05-13T17:17:30.625Z,45.61
2017-05-13T17:19:58.147Z,46.27
2017-05-13T17:22:25.723Z,46.92
2017-05-13T17:24:53.241Z,47.07
2017-05-13T17:27:20.800Z,47.43
2017-05-13T17:29:48.320Z,48.04
2017-05-13T17:32:15.854Z,48.41
2017-05-13T17:34:43.592Z,48.41
2017-05-13T17:37:11.128Z,48.57
2017-05-13T17:39:38.658Z,47.75
2017-05-13T17:42:06.375Z,47.61
2017-05-13T17:44:33.879Z,48.25
2017-05-13T17:47:01.396Z,48.80
2017-05-13T17:49:28.949Z,49.05
2017-05-13T17:51:56.483Z,49.45
2017-05-13T17:54:24.192Z,48.89
2017-05-13T17:56:51.709Z,48.80
2017-05-13T17:59:19.219Z,48.21
2017-05-13T18:01:46.780Z,48.21
2017-05-13T18:04:14.337Z,48.68
2017-05-13T18:06:42.208Z,48.62
2017-05-13T18:09:09.750Z,47.91
2017-05-13T18:11:37.267Z,47.87
2017-05-13T18:14:04.931Z,48.16
2017-05-13T18:16:32.456Z,49.04
2017-05-13T18:18:59.990Z,48.26
2017-05-13T18:21:27.572Z,48.53
2017-05-13T18:23:55.097Z,48.61
2017-05-13T18:26:22.662Z,49.02
2017-05-13T18:28:50.198Z,48.74
2017-05-13T18:31:17.864Z,49.08
2017-05-13T18:33:45.471Z,49.77
2017-05-13T18:36:12.983Z,49.93
2017-05-13T18:38:40.591Z,50.10
2017-05-13T18:41:08.124Z,49.86
2017-05-13T18:43:35.968Z,50.33
2017-05-13T18:46:03.488Z,50.56
2017-05-13T18:48:31.022Z,50.00
2017-05-13T18:50:58.732Z,50.74
2017-05-13T18:53:26.242Z,50.82
2017-05-13T18:55:53.801Z,50.96
2017-05-13T18:58:21.415Z,50.81
2017-05-13T19:00:48.929Z,51.27
2017-05-13T19:03:16.780Z,52.70
2017-05-13T19:05:44.313Z,53.05
2017-05-13T19:08:11.817Z,53.48
2017-05-13T19:10:39.334Z,53.45
2017-05-13T19:13:06.942Z,53.14
2017-05-13T19:15:34.781Z,53.00
2017-05-13T19:18:02.299Z,53.27
2017-05-13T19:20:29.963Z,53.54
2017-05-13T19:22:57.808Z,53.13
2017-05-13T19:25:25.351Z,53.06
2017-05-13T19:27:52.887Z,53.09
2017-05-13T19:30:20.588Z,52.92
2017-05-13T19:32:48.111Z,52.76
2017-05-13T19:35:15.638Z,53.11
2017-05-13T19:37:43.200Z,53.62
2017-05-13T19:40:10.723Z,53.58
2017-05-13T19:42:38.280Z,54.29
2017-05-13T19:45:05.812Z,54.77
2017-05-13T19:47:33.479Z,55.07
2017-05-13T19:50:01.000Z,55.96
2017-05-13T19:52:28.532Z,57.15
2017-05-13T19:54:56.102Z,58.35
2017-05-13T19:57:23.635Z,60.18
2017-05-13T19:59:51.324Z,60.55
2017-05-13T20:02:18.858Z,61.12
2017-05-13T20:04:46.369Z,60.73
2017-05-13T20:07:13.937Z,60.96
2017-05-13T20:09:41.468Z,61.36
2017-05-13T20:12:09.048Z,61.59
2017-05-13T20:14:36.605Z,63.07
2017-05-13T20:17:04.543Z,63.48
2017-05-13T20:19:32.073Z,63.40
2017-05-13T20:21:59.632Z,64.89
2017-05-13T20:24:27.224Z,65.37
2017-05-13T20:26:54.788Z,65.58
2017-05-13T20:29:22.343Z,66.21
2017-05-13T20:31:49.886Z,66.22
2017-05-13T20:34:17.788Z,65.57
2017-05-13T20:36:45.305Z,65.16
2017-05-13T20:39:12.849Z,64.73
2017-05-13T20:41:40.419Z,64.38
2017-05-13T20:44:07.952Z,63.80
2017-05-13T20:46:35.612Z,63.32
2017-05-13T20:49:03.140Z,64.01
2017-05-13T20:51:30.656Z,64.64
2017-05-13T20:53:58.339Z,63.90
2017-05-13T20:56:25.887Z,63.89
2017-05-13T20:58:53.469Z,63.53
2017-05-13T21:01:21.076Z,63.35
2017-05-13T21:03:48.620Z,62.61
2017-05-13T21:06:16.337Z,62.77
2017-05-13T21:08:43.849Z,62.60
2017-05-13T21:11:11.395Z,62.90
2017-05-13T21:13:38.949Z,62.84
2017-05-13T21:16:06.468Z,62.72
2017-05-13T21:18:34.231Z,62.49
2017-05-13T21:21:01.752Z,61.97
2017-05-13T21:23:29.313Z,62.04
2017-05-13T21:25:56.866Z,62.31
2017-05-13T21:28:24.376Z,61.90
2017-05-13T21:30:52.042Z,61.87
2017-05-13T21:33:19.567Z,62.62
2017-05-13T21:35:47.083Z,62.46
2017-05-13T21:38:14.760Z,62.40
2017-05-13T21:40:42.311Z,62.77
2017-05-13T21:43:09.926Z,62.57
2017-05-13T21:45:37.472Z,63.15
2017-05-13T21:48:05.008Z,62.77
2017-05-13T21:50:32.677Z,62.43
2017-05-13T21:53:00.231Z,62.68
2017-05-13T21:55:27.789Z,62.72
2017-05-13T21:57:55.321Z,62.00
2017-05-13T22:00:22.995Z,62.22
2017-05-13T22:02:50.551Z,61.05
2017-05-13T22:05:18.063Z,61.11
2017-05-13T22:07:45.790Z,61.79
2017-05-13T22:10:13.319Z,62.00
2017-05-13T22:12:40.854Z,61.97
2017-05-13T22:15:08.775Z,61.59
2017-05-13T22:17:36.281Z,61.17
2017-05-13T22:20:03.796Z,61.12
2017-05-13T22:22:31.353Z,61.22
2017-05-13T22:24:58.933Z,60.88
2017-05-13T22:27:26.695Z,60.37
2017-05-13T22:29:54.216Z,60.78
2017-05-13T22:32:21.747Z,60.63
2017-05-13T22:34:49.324Z,60.95
2017-05-13T22:37:16.840Z,61.31
2017-05-13T22:39:44.550Z,61.34
2017-05-13T22:42:12.082Z,61.38
2017-05-13T22:44:39.604Z,61.47
2017-05-13T22:47:07.212Z,62.03
2017-05-13T22:49:34.728Z,61.32
2017-05-13T22:52:02.709Z,59.86
2017-05-13T22:54:30.250Z,60.06
2017-05-13T22:56:57.780Z,60.23
2017-05-13T22:59:25.430Z,60.68
2017-05-13T23:01:52.951Z,59.88
2017-05-13T23:04:20.471Z,59.41
2017-05-13T23:06:48.144Z,59.11
2017-05-13T23:09:15.669Z,59.16
2017-05-13T23:11:43.183Z,59.06
2017-05-13T23:14:10.792Z,59.44
2017-05-13T23:16:38.324Z,59.36
2017-05-13T23:19:06.039Z,59.92
2017-05-13T23:21:33.560Z,59.93
2017-05-13T23:24:01.078Z,60.33
2017-05-13T23:26:28.637Z,60.08
2017-05-13T23:28:56.175Z,60.00
2017-05-13T23:31:23.736Z,60.56
2017-05-13T23:33:51.276Z,60.54
2017-05-13T23:36:18.968Z,61.05
2017-05-13T23:38:46.679Z,60.89
2017-05-13T23:41:14.254Z,61.43
2017-05-13T23:43:42.072Z,61.68
2017-05-13T23:46:09.614Z,62.49
2017-05-13T23:48:37.115Z,62.39
2017-05-13T23:51:04.685Z,62.05
2017-05-13T23:53:32.233Z,63.05
2017-05-13T23:55:59.855Z,62.58
2017-05-13T23:58:27.383Z,62.37
